sensor_id;sensor_type;location;lat;lon;timestamp;P1;durP1;ratioP1;P2;durP2;ratioP2
13834;SDS011;6988;52.614;13.500;2023-05-13T00:01:06;7.67;;;3.90;;
13834;SDS011;6988;52.614;13.500;2023-05-13T00:05:58;6.13;;;3.63;;
13834;SDS011;6988;52.614;13.500;2023-05-13T00:10:50;5.93;;;3.50;;
13834;SDS011;6988;52.614;13.500;2023-05-13T00:15:42;5.50;;;4.10;;
13834;SDS011;6988;52.614;13.500;2023-05-13T00:20:35;7.10;;;4.00;;
13834;SDS011;6988;52.614;13.500;2023-05-13T00:30:18;7.77;;;3.97;;
13834;SDS011;6988;52.614;13.500;2023-05-13T00:35:10;9.17;;;4.00;;
13834;SDS011;6988;52.614;13.500;2023-05-13T00:40:04;6.97;;;4.23;;
13834;SDS011;6988;52.614;13.500;2023-05-13T00:45:07;8.63;;;4.10;;
13834;SDS011;6988;52.614;13.500;2023-05-13T00:50:00;5.93;;;4.10;;
13834;SDS011;6988;52.614;13.500;2023-05-13T00:54:52;7.67;;;4.03;;
13834;SDS011;6988;52.614;13.500;2023-05-13T00:59:45;6.73;;;4.27;;
13834;SDS011;6988;52.614;13.500;2023-05-13T01:04:40;6.23;;;4.17;;
13834;SDS011;6988;52.614;13.500;2023-05-13T01:09:55;6.57;;;4.23;;
13834;SDS011;6988;52.614;13.500;2023-05-13T01:14:58;5.33;;;4.20;;
13834;SDS011;6988;52.614;13.500;2023-05-13T01:19:57;7.13;;;4.40;;
13834;SDS011;6988;52.614;13.500;2023-05-13T01:24:55;5.83;;;4.53;;
13834;SDS011;6988;52.614;13.500;2023-05-13T01:29:47;5.50;;;4.20;;
13834;SDS011;6988;52.614;13.500;2023-05-13T01:34:45;8.40;;;4.70;;
13834;SDS011;6988;52.614;13.500;2023-05-13T01:39:38;8.07;;;4.73;;
13834;SDS011;6988;52.614;13.500;2023-05-13T01:44:37;7.17;;;4.87;;
13834;SDS011;6988;52.614;13.500;2023-05-13T01:49:29;8.53;;;5.00;;
13834;SDS011;6988;52.614;13.500;2023-05-13T01:54:21;9.60;;;4.40;;
13834;SDS011;6988;52.614;13.500;2023-05-13T01:59:18;6.00;;;4.33;;
13834;SDS011;6988;52.614;13.500;2023-05-13T02:04:12;6.93;;;4.27;;
13834;SDS011;6988;52.614;13.500;2023-05-13T02:09:05;6.87;;;4.33;;
13834;SDS011;6988;52.614;13.500;2023-05-13T02:13:57;6.30;;;4.70;;
13834;SDS011;6988;52.614;13.500;2023-05-13T02:18:49;8.00;;;4.80;;
13834;SDS011;6988;52.614;13.500;2023-05-13T02:23:42;6.50;;;5.00;;
13834;SDS011;6988;52.614;13.500;2023-05-13T02:28:35;6.47;;;4.63;;
13834;SDS011;6988;52.614;13.500;2023-05-13T02:33:27;8.20;;;4.90;;
13834;SDS011;6988;52.614;13.500;2023-05-13T02:38:19;9.77;;;5.03;;
13834;SDS011;6988;52.614;13.500;2023-05-13T02:43:12;8.47;;;4.57;;
13834;SDS011;6988;52.614;13.500;2023-05-13T02:48:12;5.10;;;4.60;;
13834;SDS011;6988;52.614;13.500;2023-05-13T02:53:05;8.07;;;5.07;;
13834;SDS011;6988;52.614;13.500;2023-05-13T02:58:00;6.97;;;4.80;;
13834;SDS011;6988;52.614;13.500;2023-05-13T03:02:55;10.00;;;4.63;;
13834;SDS011;6988;52.614;13.500;2023-05-13T03:07:48;8.50;;;5.07;;
13834;SDS011;6988;52.614;13.500;2023-05-13T03:12:40;8.80;;;5.20;;
13834;SDS011;6988;52.614;13.500;2023-05-13T03:17:32;7.23;;;4.77;;
13834;SDS011;6988;52.614;13.500;2023-05-13T03:22:25;5.90;;;4.43;;
13834;SDS011;6988;52.614;13.500;2023-05-13T03:27:17;8.33;;;4.70;;
13834;SDS011;6988;52.614;13.500;2023-05-13T03:32:10;7.13;;;5.00;;
13834;SDS011;6988;52.614;13.500;2023-05-13T03:37:02;7.67;;;5.10;;
13834;SDS011;6988;52.614;13.500;2023-05-13T03:41:56;8.57;;;4.77;;
13834;SDS011;6988;52.614;13.500;2023-05-13T03:46:48;6.63;;;5.27;;
13834;SDS011;6988;52.614;13.500;2023-05-13T03:51:42;10.67;;;4.77;;
13834;SDS011;6988;52.614;13.500;2023-05-13T03:56:34;9.53;;;5.30;;
13834;SDS011;6988;52.614;13.500;2023-05-13T04:01:28;7.70;;;5.03;;
13834;SDS011;6988;52.614;13.500;2023-05-13T04:06:20;6.13;;;4.97;;
13834;SDS011;6988;52.614;13.500;2023-05-13T04:11:12;9.33;;;5.23;;
13834;SDS011;6988;52.614;13.500;2023-05-13T04:16:04;6.90;;;5.33;;
13834;SDS011;6988;52.614;13.500;2023-05-13T04:20:57;8.83;;;5.20;;
13834;SDS011;6988;52.614;13.500;2023-05-13T04:25:49;8.90;;;5.47;;
13834;SDS011;6988;52.614;13.500;2023-05-13T04:30:41;8.17;;;5.67;;
13834;SDS011;6988;52.614;13.500;2023-05-13T04:35:33;7.17;;;5.50;;
13834;SDS011;6988;52.614;13.500;2023-05-13T04:40:28;8.13;;;5.00;;
13834;SDS011;6988;52.614;13.500;2023-05-13T04:45:25;8.17;;;5.17;;
13834;SDS011;6988;52.614;13.500;2023-05-13T04:50:17;14.87;;;7.67;;
13834;SDS011;6988;52.614;13.500;2023-05-13T04:55:09;11.23;;;6.87;;
13834;SDS011;6988;52.614;13.500;2023-05-13T05:00:03;6.70;;;4.87;;
13834;SDS011;6988;52.614;13.500;2023-05-13T05:04:59;5.87;;;4.73;;
13834;SDS011;6988;52.614;13.500;2023-05-13T05:09:51;5.80;;;4.47;;
13834;SDS011;6988;52.614;13.500;2023-05-13T05:14:43;7.90;;;4.63;;
13834;SDS011;6988;52.614;13.500;2023-05-13T05:19:37;7.00;;;4.30;;
13834;SDS011;6988;52.614;13.500;2023-05-13T05:24:29;7.63;;;3.80;;
13834;SDS011;6988;52.614;13.500;2023-05-13T05:29:21;5.93;;;4.10;;
13834;SDS011;6988;52.614;13.500;2023-05-13T05:34:13;4.60;;;3.77;;
13834;SDS011;6988;52.614;13.500;2023-05-13T05:39:08;5.60;;;4.00;;
13834;SDS011;6988;52.614;13.500;2023-05-13T05:44:00;6.93;;;3.63;;
13834;SDS011;6988;52.614;13.500;2023-05-13T05:48:52;6.10;;;3.57;;
13834;SDS011;6988;52.614;13.500;2023-05-13T05:53:45;5.67;;;4.10;;
13834;SDS011;6988;52.614;13.500;2023-05-13T05:58:40;6.40;;;3.60;;
13834;SDS011;6988;52.614;13.500;2023-05-13T06:03:32;6.47;;;3.40;;
13834;SDS011;6988;52.614;13.500;2023-05-13T06:08:25;6.30;;;3.53;;
13834;SDS011;6988;52.614;13.500;2023-05-13T06:13:19;5.83;;;3.03;;
13834;SDS011;6988;52.614;13.500;2023-05-13T06:18:12;6.57;;;3.33;;
13834;SDS011;6988;52.614;13.500;2023-05-13T06:23:04;9.60;;;3.50;;
13834;SDS011;6988;52.614;13.500;2023-05-13T06:27:56;6.77;;;3.57;;
13834;SDS011;6988;52.614;13.500;2023-05-13T06:32:48;4.60;;;3.10;;
13834;SDS011;6988;52.614;13.500;2023-05-13T06:37:41;5.77;;;3.47;;
13834;SDS011;6988;52.614;13.500;2023-05-13T06:42:34;7.97;;;3.03;;
13834;SDS011;6988;52.614;13.500;2023-05-13T06:47:37;5.00;;;2.93;;
13834;SDS011;6988;52.614;13.500;2023-05-13T06:52:28;5.43;;;3.40;;
13834;SDS011;6988;52.614;13.500;2023-05-13T06:57:22;6.07;;;3.00;;
13834;SDS011;6988;52.614;13.500;2023-05-13T07:02:14;4.73;;;2.80;;
13834;SDS011;6988;52.614;13.500;2023-05-13T07:07:05;6.63;;;2.60;;
13834;SDS011;6988;52.614;13.500;2023-05-13T07:11:57;3.83;;;2.80;;
13834;SDS011;6988;52.614;13.500;2023-05-13T07:16:50;3.90;;;2.53;;
13834;SDS011;6988;52.614;13.500;2023-05-13T07:21:42;4.63;;;2.43;;
13834;SDS011;6988;52.614;13.500;2023-05-13T07:26:34;3.90;;;2.40;;
13834;SDS011;6988;52.614;13.500;2023-05-13T07:31:26;5.67;;;2.30;;
13834;SDS011;6988;52.614;13.500;2023-05-13T07:36:19;3.53;;;2.20;;
13834;SDS011;6988;52.614;13.500;2023-05-13T07:41:29;4.63;;;2.23;;
13834;SDS011;6988;52.614;13.500;2023-05-13T07:46:38;5.30;;;2.30;;
13834;SDS011;6988;52.614;13.500;2023-05-13T07:51:38;3.77;;;2.10;;
13834;SDS011;6988;52.614;13.500;2023-05-13T07:56:31;7.33;;;2.13;;
13834;SDS011;6988;52.614;13.500;2023-05-13T08:01:23;3.27;;;2.10;;
13834;SDS011;6988;52.614;13.500;2023-05-13T08:06:15;3.80;;;2.30;;
13834;SDS011;6988;52.614;13.500;2023-05-13T08:11:10;6.73;;;2.67;;
13834;SDS011;6988;52.614;13.500;2023-05-13T08:16:02;6.77;;;2.17;;
13834;SDS011;6988;52.614;13.500;2023-05-13T08:20:56;4.90;;;2.30;;
13834;SDS011;6988;52.614;13.500;2023-05-13T08:25:48;2.90;;;2.00;;
13834;SDS011;6988;52.614;13.500;2023-05-13T08:30:42;4.13;;;2.10;;
13834;SDS011;6988;52.614;13.500;2023-05-13T08:35:34;3.80;;;2.43;;
13834;SDS011;6988;52.614;13.500;2023-05-13T08:40:26;4.20;;;2.23;;
13834;SDS011;6988;52.614;13.500;2023-05-13T08:45:18;4.90;;;2.20;;
13834;SDS011;6988;52.614;13.500;2023-05-13T08:50:20;5.60;;;2.27;;
13834;SDS011;6988;52.614;13.500;2023-05-13T08:55:13;7.73;;;2.40;;
13834;SDS011;6988;52.614;13.500;2023-05-13T09:00:10;5.07;;;2.37;;
13834;SDS011;6988;52.614;13.500;2023-05-13T09:05:04;6.07;;;2.13;;
13834;SDS011;6988;52.614;13.500;2023-05-13T09:09:59;4.60;;;2.10;;
13834;SDS011;6988;52.614;13.500;2023-05-13T09:14:51;2.90;;;2.13;;
13834;SDS011;6988;52.614;13.500;2023-05-13T09:19:45;3.83;;;2.23;;
13834;SDS011;6988;52.614;13.500;2023-05-13T09:24:37;4.93;;;2.27;;
13834;SDS011;6988;52.614;13.500;2023-05-13T09:29:32;5.70;;;1.90;;
13834;SDS011;6988;52.614;13.500;2023-05-13T09:34:25;4.27;;;2.20;;
13834;SDS011;6988;52.614;13.500;2023-05-13T09:39:19;3.37;;;2.40;;
13834;SDS011;6988;52.614;13.500;2023-05-13T09:44:11;5.50;;;2.20;;
13834;SDS011;6988;52.614;13.500;2023-05-13T09:49:05;3.20;;;2.60;;
13834;SDS011;6988;52.614;13.500;2023-05-13T09:54:01;7.10;;;2.03;;
13834;SDS011;6988;52.614;13.500;2023-05-13T09:58:55;5.37;;;2.27;;
13834;SDS011;6988;52.614;13.500;2023-05-13T10:03:50;5.10;;;2.47;;
13834;SDS011;6988;52.614;13.500;2023-05-13T10:08:44;3.57;;;2.03;;
13834;SDS011;6988;52.614;13.500;2023-05-13T10:13:41;2.80;;;2.20;;
13834;SDS011;6988;52.614;13.500;2023-05-13T10:18:42;3.60;;;2.10;;
13834;SDS011;6988;52.614;13.500;2023-05-13T10:23:35;3.20;;;2.10;;
13834;SDS011;6988;52.614;13.500;2023-05-13T10:28:31;4.30;;;2.00;;
13834;SDS011;6988;52.614;13.500;2023-05-13T10:33:24;2.40;;;1.95;;
13834;SDS011;6988;52.614;13.500;2023-05-13T10:38:20;4.97;;;1.90;;
13834;SDS011;6988;52.614;13.500;2023-05-13T10:43:28;2.70;;;1.85;;
13834;SDS011;6988;52.614;13.500;2023-05-13T10:48:23;3.30;;;1.95;;
13834;SDS011;6988;52.614;13.500;2023-05-13T10:53:17;8.48;;;2.70;;
13834;SDS011;6988;52.614;13.500;2023-05-13T10:58:13;5.28;;;2.33;;
13834;SDS011;6988;52.614;13.500;2023-05-13T11:03:12;2.28;;;1.70;;
13834;SDS011;6988;52.614;13.500;2023-05-13T11:08:36;3.10;;;2.10;;
13834;SDS011;6988;52.614;13.500;2023-05-13T11:13:34;4.40;;;2.20;;
13834;SDS011;6988;52.614;13.500;2023-05-13T11:18:28;3.40;;;1.90;;
13834;SDS011;6988;52.614;13.500;2023-05-13T11:23:21;3.65;;;2.00;;
13834;SDS011;6988;52.614;13.500;2023-05-13T11:28:17;2.92;;;1.60;;
13834;SDS011;6988;52.614;13.500;2023-05-13T11:34:05;3.92;;;1.77;;
13834;SDS011;6988;52.614;13.500;2023-05-13T11:39:03;5.65;;;2.00;;
13834;SDS011;6988;52.614;13.500;2023-05-13T11:44:02;3.58;;;1.88;;
13834;SDS011;6988;52.614;13.500;2023-05-13T11:48:55;3.85;;;1.70;;
13834;SDS011;6988;52.614;13.500;2023-05-13T11:53:47;3.83;;;1.80;;
13834;SDS011;6988;52.614;13.500;2023-05-13T11:58:39;3.22;;;1.70;;
13834;SDS011;6988;52.614;13.500;2023-05-13T12:03:32;7.05;;;2.00;;
13834;SDS011;6988;52.614;13.500;2023-05-13T12:08:24;7.78;;;2.35;;
13834;SDS011;6988;52.614;13.500;2023-05-13T12:13:17;6.03;;;2.03;;
13834;SDS011;6988;52.614;13.500;2023-05-13T12:18:10;4.93;;;2.10;;
13834;SDS011;6988;52.614;13.500;2023-05-13T12:23:04;4.55;;;1.95;;
13834;SDS011;6988;52.614;13.500;2023-05-13T12:27:56;6.20;;;2.03;;
13834;SDS011;6988;52.614;13.500;2023-05-13T12:32:48;3.20;;;1.98;;
13834;SDS011;6988;52.614;13.500;2023-05-13T12:37:41;6.38;;;2.20;;
13834;SDS011;6988;52.614;13.500;2023-05-13T12:42:34;4.85;;;1.98;;
13834;SDS011;6988;52.614;13.500;2023-05-13T12:47:26;5.28;;;1.90;;
13834;SDS011;6988;52.614;13.500;2023-05-13T12:52:18;4.30;;;1.90;;
13834;SDS011;6988;52.614;13.500;2023-05-13T12:57:10;4.68;;;1.90;;
13834;SDS011;6988;52.614;13.500;2023-05-13T13:02:03;7.72;;;2.30;;
13834;SDS011;6988;52.614;13.500;2023-05-13T13:06:56;4.55;;;2.08;;
13834;SDS011;6988;52.614;13.500;2023-05-13T13:11:48;5.85;;;2.00;;
13834;SDS011;6988;52.614;13.500;2023-05-13T13:16:41;5.40;;;2.10;;
13834;SDS011;6988;52.614;13.500;2023-05-13T13:21:34;5.88;;;2.17;;
13834;SDS011;6988;52.614;13.500;2023-05-13T13:26:26;6.75;;;2.22;;
13834;SDS011;6988;52.614;13.500;2023-05-13T13:31:18;4.68;;;2.03;;
13834;SDS011;6988;52.614;13.500;2023-05-13T13:36:10;7.55;;;2.17;;
13834;SDS011;6988;52.614;13.500;2023-05-13T13:41:03;5.22;;;2.20;;
13834;SDS011;6988;52.614;13.500;2023-05-13T13:45:55;5.72;;;2.05;;
13834;SDS011;6988;52.614;13.500;2023-05-13T13:50:47;3.53;;;1.77;;
13834;SDS011;6988;52.614;13.500;2023-05-13T13:55:39;2.10;;;1.90;;
13834;SDS011;6988;52.614;13.500;2023-05-13T14:00:32;5.03;;;2.20;;
13834;SDS011;6988;52.614;13.500;2023-05-13T14:05:24;7.40;;;2.25;;
13834;SDS011;6988;52.614;13.500;2023-05-13T14:10:15;5.78;;;2.30;;
13834;SDS011;6988;52.614;13.500;2023-05-13T14:15:07;3.83;;;2.30;;
13834;SDS011;6988;52.614;13.500;2023-05-13T14:20:02;4.55;;;2.13;;
13834;SDS011;6988;52.614;13.500;2023-05-13T14:24:54;3.30;;;2.10;;
13834;SDS011;6988;52.614;13.500;2023-05-13T14:29:46;4.47;;;2.40;;
13834;SDS011;6988;52.614;13.500;2023-05-13T14:34:38;6.30;;;2.35;;
13834;SDS011;6988;52.614;13.500;2023-05-13T14:39:31;3.85;;;2.38;;
13834;SDS011;6988;52.614;13.500;2023-05-13T14:44:23;3.97;;;2.20;;
13834;SDS011;6988;52.614;13.500;2023-05-13T14:49:15;2.78;;;2.08;;
13834;SDS011;6988;52.614;13.500;2023-05-13T14:54:07;4.05;;;2.15;;
13834;SDS011;6988;52.614;13.500;2023-05-13T14:59:00;3.47;;;2.13;;
13834;SDS011;6988;52.614;13.500;2023-05-13T15:03:52;4.32;;;2.35;;
13834;SDS011;6988;52.614;13.500;2023-05-13T15:08:44;4.90;;;2.58;;
13834;SDS011;6988;52.614;13.500;2023-05-13T15:13:36;3.67;;;2.22;;
13834;SDS011;6988;52.614;13.500;2023-05-13T15:18:29;3.83;;;2.00;;
13834;SDS011;6988;52.614;13.500;2023-05-13T15:23:21;2.50;;;1.95;;
13834;SDS011;6988;52.614;13.500;2023-05-13T15:28:13;5.03;;;2.53;;
13834;SDS011;6988;52.614;13.500;2023-05-13T15:33:05;4.80;;;2.10;;
13834;SDS011;6988;52.614;13.500;2023-05-13T15:37:58;4.22;;;2.42;;
13834;SDS011;6988;52.614;13.500;2023-05-13T15:42:50;5.13;;;2.40;;
13834;SDS011;6988;52.614;13.500;2023-05-13T15:47:41;3.30;;;2.50;;
13834;SDS011;6988;52.614;13.500;2023-05-13T15:52:33;3.17;;;2.47;;
13834;SDS011;6988;52.614;13.500;2023-05-13T15:57:26;5.60;;;2.67;;
13834;SDS011;6988;52.614;13.500;2023-05-13T16:02:18;4.63;;;2.80;;
13834;SDS011;6988;52.614;13.500;2023-05-13T16:07:10;4.10;;;2.77;;
13834;SDS011;6988;52.614;13.500;2023-05-13T16:12:02;5.33;;;2.70;;
13834;SDS011;6988;52.614;13.500;2023-05-13T16:16:57;5.67;;;2.93;;
13834;SDS011;6988;52.614;13.500;2023-05-13T16:21:49;4.90;;;2.47;;
13834;SDS011;6988;52.614;13.500;2023-05-13T16:26:41;5.40;;;3.10;;
13834;SDS011;6988;52.614;13.500;2023-05-13T16:31:33;6.63;;;2.70;;
13834;SDS011;6988;52.614;13.500;2023-05-13T16:36:26;5.30;;;2.93;;
13834;SDS011;6988;52.614;13.500;2023-05-13T16:41:18;3.90;;;3.13;;
13834;SDS011;6988;52.614;13.500;2023-05-13T16:46:10;4.13;;;3.17;;
13834;SDS011;6988;52.614;13.500;2023-05-13T16:51:02;3.63;;;2.63;;
13834;SDS011;6988;52.614;13.500;2023-05-13T16:55:55;4.77;;;3.07;;
13834;SDS011;6988;52.614;13.500;2023-05-13T17:00:47;5.53;;;3.00;;
13834;SDS011;6988;52.614;13.500;2023-05-13T17:05:39;3.73;;;2.93;;
13834;SDS011;6988;52.614;13.500;2023-05-13T17:10:31;5.17;;;2.70;;
13834;SDS011;6988;52.614;13.500;2023-05-13T17:15:25;3.83;;;3.07;;
13834;SDS011;6988;52.614;13.500;2023-05-13T17:20:17;6.20;;;2.80;;
13834;SDS011;6988;52.614;13.500;2023-05-13T17:25:09;4.40;;;3.00;;
13834;SDS011;6988;52.614;13.500;2023-05-13T17:30:01;4.03;;;2.77;;
13834;SDS011;6988;52.614;13.500;2023-05-13T17:34:54;5.33;;;3.17;;
13834;SDS011;6988;52.614;13.500;2023-05-13T17:39:46;5.87;;;3.13;;
13834;SDS011;6988;52.614;13.500;2023-05-13T17:44:39;4.90;;;2.77;;
13834;SDS011;6988;52.614;13.500;2023-05-13T17:49:31;3.87;;;3.00;;
13834;SDS011;6988;52.614;13.500;2023-05-13T17:54:24;4.60;;;3.23;;
13834;SDS011;6988;52.614;13.500;2023-05-13T17:59:16;4.53;;;3.37;;
13834;SDS011;6988;52.614;13.500;2023-05-13T18:04:08;3.07;;;2.77;;
13834;SDS011;6988;52.614;13.500;2023-05-13T18:09:00;4.63;;;2.90;;
13834;SDS011;6988;52.614;13.500;2023-05-13T18:13:53;5.13;;;3.43;;
13834;SDS011;6988;52.614;13.500;2023-05-13T18:18:45;4.33;;;3.60;;
13834;SDS011;6988;52.614;13.500;2023-05-13T18:23:37;5.40;;;3.87;;
13834;SDS011;6988;52.614;13.500;2023-05-13T18:28:29;7.67;;;3.70;;
13834;SDS011;6988;52.614;13.500;2023-05-13T18:33:22;5.60;;;3.83;;
13834;SDS011;6988;52.614;13.500;2023-05-13T18:38:14;4.67;;;3.50;;
13834;SDS011;6988;52.614;13.500;2023-05-13T18:43:06;5.80;;;3.23;;
13834;SDS011;6988;52.614;13.500;2023-05-13T18:47:58;4.93;;;3.30;;
13834;SDS011;6988;52.614;13.500;2023-05-13T18:52:51;6.33;;;3.63;;
13834;SDS011;6988;52.614;13.500;2023-05-13T18:57:44;5.60;;;3.40;;
13834;SDS011;6988;52.614;13.500;2023-05-13T19:02:36;4.37;;;3.23;;
13834;SDS011;6988;52.614;13.500;2023-05-13T19:07:28;6.77;;;3.43;;
13834;SDS011;6988;52.614;13.500;2023-05-13T19:12:21;5.40;;;3.33;;
13834;SDS011;6988;52.614;13.500;2023-05-13T19:17:17;3.50;;;3.20;;
13834;SDS011;6988;52.614;13.500;2023-05-13T19:22:08;5.30;;;4.33;;
13834;SDS011;6988;52.614;13.500;2023-05-13T19:27:00;6.70;;;3.70;;
13834;SDS011;6988;52.614;13.500;2023-05-13T19:31:54;6.03;;;4.20;;
13834;SDS011;6988;52.614;13.500;2023-05-13T19:36:46;7.87;;;4.97;;
13834;SDS011;6988;52.614;13.500;2023-05-13T19:41:38;12.33;;;9.60;;
13834;SDS011;6988;52.614;13.500;2023-05-13T19:46:30;14.13;;;9.90;;
13834;SDS011;6988;52.614;13.500;2023-05-13T19:51:23;11.30;;;8.37;;
13834;SDS011;6988;52.614;13.500;2023-05-13T19:56:15;10.50;;;8.70;;
13834;SDS011;6988;52.614;13.500;2023-05-13T20:01:07;10.63;;;8.73;;
13834;SDS011;6988;52.614;13.500;2023-05-13T20:06:00;11.33;;;8.07;;
13834;SDS011;6988;52.614;13.500;2023-05-13T20:10:54;8.60;;;7.37;;
13834;SDS011;6988;52.614;13.500;2023-05-13T20:15:45;12.30;;;8.97;;
13834;SDS011;6988;52.614;13.500;2023-05-13T20:20:37;12.40;;;9.17;;
13834;SDS011;6988;52.614;13.500;2023-05-13T20:25:30;16.73;;;10.70;;
13834;SDS011;6988;52.614;13.500;2023-05-13T20:30:23;15.10;;;11.00;;
13834;SDS011;6988;52.614;13.500;2023-05-13T20:35:15;16.83;;;12.30;;
13834;SDS011;6988;52.614;13.500;2023-05-13T20:40:07;15.47;;;11.80;;
13834;SDS011;6988;52.614;13.500;2023-05-13T20:45:00;13.40;;;9.90;;
13834;SDS011;6988;52.614;13.500;2023-05-13T20:49:53;12.87;;;9.70;;
13834;SDS011;6988;52.614;13.500;2023-05-13T20:54:45;11.57;;;9.70;;
13834;SDS011;6988;52.614;13.500;2023-05-13T20:59:37;12.97;;;10.57;;
13834;SDS011;6988;52.614;13.500;2023-05-13T21:04:29;12.90;;;9.90;;
13834;SDS011;6988;52.614;13.500;2023-05-13T21:09:22;10.63;;;8.93;;
13834;SDS011;6988;52.614;13.500;2023-05-13T21:14:14;10.70;;;9.60;;
13834;SDS011;6988;52.614;13.500;2023-05-13T21:19:06;11.93;;;9.90;;
13834;SDS011;6988;52.614;13.500;2023-05-13T21:23:57;11.57;;;10.00;;
13834;SDS011;6988;52.614;13.500;2023-05-13T21:28:51;13.97;;;11.30;;
13834;SDS011;6988;52.614;13.500;2023-05-13T21:33:42;13.17;;;11.53;;
13834;SDS011;6988;52.614;13.500;2023-05-13T21:38:34;14.97;;;11.47;;
13834;SDS011;6988;52.614;13.500;2023-05-13T21:43:26;14.73;;;11.97;;
13834;SDS011;6988;52.614;13.500;2023-05-13T22:04:05;10.77;;;8.70;;
13834;SDS011;6988;52.614;13.500;2023-05-13T22:08:56;12.13;;;9.63;;
13834;SDS011;6988;52.614;13.500;2023-05-13T22:13:48;13.17;;;9.80;;
13834;SDS011;6988;52.614;13.500;2023-05-13T22:18:40;12.80;;;10.80;;
13834;SDS011;6988;52.614;13.500;2023-05-13T22:23:33;14.07;;;11.63;;
13834;SDS011;6988;52.614;13.500;2023-05-13T22:28:25;19.73;;;13.37;;
13834;SDS011;6988;52.614;13.500;2023-05-13T22:33:17;19.63;;;14.10;;
13834;SDS011;6988;52.614;13.500;2023-05-13T22:38:09;18.83;;;13.80;;
13834;SDS011;6988;52.614;13.500;2023-05-13T22:43:02;17.67;;;13.57;;
13834;SDS011;6988;52.614;13.500;2023-05-13T22:47:54;16.30;;;12.00;;
13834;SDS011;6988;52.614;13.500;2023-05-13T22:52:46;14.50;;;10.73;;
13834;SDS011;6988;52.614;13.500;2023-05-13T22:57:38;11.93;;;9.83;;
13834;SDS011;6988;52.614;13.500;2023-05-13T23:02:32;11.43;;;9.10;;
13834;SDS011;6988;52.614;13.500;2023-05-13T23:07:24;10.57;;;8.57;;
13834;SDS011;6988;52.614;13.500;2023-05-13T23:12:16;10.63;;;8.10;;
13834;SDS011;6988;52.614;13.500;2023-05-13T23:17:07;8.33;;;7.27;;
13834;SDS011;6988;52.614;13.500;2023-05-13T23:22:01;11.90;;;8.20;;
13834;SDS011;6988;52.614;13.500;2023-05-13T23:26:53;8.53;;;7.57;;
13834;SDS011;6988;52.614;13.500;2023-05-13T23:31:45;10.00;;;7.40;;
13834;SDS011;6988;52.614;13.500;2023-05-13T23:36:36;12.07;;;8.17;;
13834;SDS011;6988;52.614;13.500;2023-05-13T23:41:30;9.77;;;7.73;;
13834;SDS011;6988;52.614;13.500;2023-05-13T23:46:23;9.90;;;7.40;;
13834;SDS011;6988;52.614;13.500;2023-05-13T23:51:16;9.83;;;7.70;;
13834;SDS011;6988;52.614;13.500;2023-05-13T23:56:08;8.17;;;7.27;;
